N444GF KT74-KT74
Flight info
| Callsign | N444GF |
|---|---|
| Flight time | 0h 3m |
| Altitude | 5500 |
| Route | VFR N |
| Aircraft | SR22/L-SDGRY/S |
Departure
| Time | 2026-05-07 23:40 |
|---|---|
| Airport | Taylor Municipal Airport (KT74) |
Arrival
| Time | 2026-05-07 23:43 |
|---|---|
| Airport | Taylor Municipal Airport (KT74) |
| Time | Latitude | Longitude | Altitude | Speed | Heading |
|---|---|---|---|---|---|
| 2026-05-07 23:34 | 30.56995 | -97.44191 | 566 ft | 0 kts | 207° |
| 2026-05-07 23:38 | 30.56990 | -97.44208 | 568 ft | 2 kts | 313° |
| 2026-05-07 23:38 | 30.57019 | -97.44217 | 566 ft | 7 kts | 284° |
| 2026-05-07 23:38 | 30.56945 | -97.44236 | 565 ft | 17 kts | 179° |
| 2026-05-07 23:38 | 30.56823 | -97.44234 | 560 ft | 17 kts | 177° |
| 2026-05-07 23:39 | 30.56752 | -97.44229 | 557 ft | 0 kts | 171° |
| 2026-05-07 23:39 | 30.56748 | -97.44229 | 557 ft | 6 kts | 182° |
| 2026-05-07 23:39 | 30.56743 | -97.44306 | 558 ft | 15 kts | 343° |
| 2026-05-07 23:39 | 30.56905 | -97.44313 | 563 ft | 48 kts | 358° |
| 2026-05-07 23:40 | 30.57418 | -97.44325 | 590 ft | 94 kts | 359° |
| 2026-05-07 23:40 | 30.58097 | -97.44319 | 835 ft | 94 kts | 0° |
| 2026-05-07 23:40 | 30.58768 | -97.44309 | 1214 ft | 98 kts | 1° |
| 2026-05-07 23:40 | 30.59339 | -97.44660 | 1523 ft | 109 kts | 294° |
| 2026-05-07 23:41 | 30.59355 | -97.45566 | 1632 ft | 118 kts | 256° |
| 2026-05-07 23:41 | 30.58706 | -97.46086 | 1598 ft | 120 kts | 184° |
| 2026-05-07 23:41 | 30.57866 | -97.46155 | 1541 ft | 120 kts | 179° |
| 2026-05-07 23:41 | 30.57039 | -97.46207 | 1524 ft | 118 kts | 180° |
| 2026-05-07 23:42 | 30.56269 | -97.46235 | 1425 ft | 106 kts | 175° |
| 2026-05-07 23:42 | 30.55715 | -97.45812 | 1207 ft | 97 kts | 106° |
| 2026-05-07 23:42 | 30.55557 | -97.45066 | 1041 ft | 93 kts | 93° |
| 2026-05-07 23:42 | 30.55718 | -97.44414 | 914 ft | 86 kts | 24° |
| 2026-05-07 23:43 | 30.56247 | -97.44294 | 752 ft | 81 kts | 2° |
| 2026-05-07 23:43 | 30.56804 | -97.44311 | 581 ft | 78 kts | 356° |
| 2026-05-07 23:43 | 30.57213 | -97.44322 | 576 ft | 26 kts | 356° |
| 2026-05-07 23:43 | 30.57378 | -97.44325 | 581 ft | 20 kts | 0° |
| 2026-05-07 23:44 | 30.57419 | -97.44257 | 584 ft | 12 kts | 118° |
| 2026-05-07 23:44 | 30.57312 | -97.44245 | 578 ft | 20 kts | 179° |
| 2026-05-07 23:44 | 30.57151 | -97.44241 | 577 ft | 25 kts | 179° |
| 2026-05-07 23:44 | 30.56962 | -97.44236 | 566 ft | 30 kts | 178° |
| 2026-05-07 23:45 | 30.56788 | -97.44232 | 559 ft | 17 kts | 179° |
| 2026-05-07 23:45 | 30.56754 | -97.44232 | 557 ft | 0 kts | 180° |
| 2026-05-07 23:46 | 30.56723 | -97.44252 | 558 ft | 11 kts | 243° |
| 2026-05-07 23:46 | 30.56722 | -97.44308 | 565 ft | 1 kts | 330° |
| 2026-05-07 23:46 | 30.56726 | -97.44310 | 564 ft | 0 kts | 358° |
| 2026-05-07 23:47 | 30.56982 | -97.44314 | 565 ft | 70 kts | 359° |
| 2026-05-07 23:47 | 30.57484 | -97.44331 | 865 ft | 72 kts | 359° |
| 2026-05-07 23:47 | 30.58032 | -97.44352 | 1074 ft | 90 kts | 359° |
| 2026-05-07 23:48 | 30.58672 | -97.44456 | 1437 ft | 98 kts | 324° |
| 2026-05-07 23:48 | 30.58873 | -97.45250 | 1646 ft | 111 kts | 276° |
| 2026-05-07 23:48 | 30.58433 | -97.45941 | 1577 ft | 121 kts | 186° |
| 2026-05-07 23:48 | 30.57582 | -97.45878 | 1507 ft | 128 kts | 169° |
| 2026-05-07 23:49 | 30.56730 | -97.45756 | 1503 ft | 116 kts | 168° |
| 2026-05-07 23:49 | 30.55977 | -97.45640 | 1421 ft | 106 kts | 170° |
| 2026-05-07 23:49 | 30.55473 | -97.45119 | 1240 ft | 98 kts | 95° |
| 2026-05-07 23:49 | 30.55651 | -97.44494 | 1045 ft | 86 kts | 25° |
| 2026-05-07 23:50 | 30.56238 | -97.44318 | 767 ft | 88 kts | 5° |
| 2026-05-07 23:50 | 30.56836 | -97.44311 | 571 ft | 81 kts | 359° |
| 2026-05-07 23:50 | 30.57237 | -97.44324 | 582 ft | 18 kts | 0° |
| 2026-05-07 23:50 | 30.57249 | -97.44323 | 575 ft | 0 kts | 3° |
| 2026-05-07 23:51 | 30.57255 | -97.44323 | 582 ft | 12 kts | 1° |
| 2026-05-07 23:51 | 30.57608 | -97.44335 | 620 ft | 80 kts | 359° |
| 2026-05-07 23:51 | 30.58233 | -97.44355 | 895 ft | 95 kts | 356° |
| 2026-05-07 23:51 | 30.58920 | -97.44424 | 1268 ft | 104 kts | 355° |
| 2026-05-07 23:52 | 30.59667 | -97.44509 | 1578 ft | 115 kts | 356° |
| 2026-05-07 23:52 | 30.60460 | -97.44630 | 1999 ft | 112 kts | 355° |
| 2026-05-07 23:52 | 30.61237 | -97.44764 | 2371 ft | 114 kts | 355° |
| 2026-05-07 23:52 | 30.62022 | -97.44906 | 2752 ft | 113 kts | 3° |
| 2026-05-07 23:53 | 30.62769 | -97.44711 | 3129 ft | 112 kts | 26° |
| 2026-05-07 23:53 | 30.63494 | -97.44364 | 3465 ft | 113 kts | 27° |
| 2026-05-07 23:53 | 30.64288 | -97.44126 | 3533 ft | 125 kts | 357° |
| 2026-05-07 23:53 | 30.64917 | -97.44843 | 3488 ft | 143 kts | 287° |
| 2026-05-07 23:54 | 30.65540 | -97.45572 | 3620 ft | 132 kts | 356° |
| 2026-05-07 23:54 | 30.66448 | -97.45663 | 3546 ft | 133 kts | 1° |
| 2026-05-07 23:54 | 30.67380 | -97.45752 | 3461 ft | 130 kts | 359° |
| 2026-05-07 23:54 | 30.68070 | -97.46281 | 3788 ft | 121 kts | 280° |
| 2026-05-07 23:55 | 30.67805 | -97.47009 | 4379 ft | 97 kts | 200° |
| 2026-05-07 23:55 | 30.67179 | -97.47158 | 4821 ft | 96 kts | 185° |
| 2026-05-07 23:55 | 30.66408 | -97.47245 | 4874 ft | 118 kts | 185° |
| 2026-05-07 23:55 | 30.65762 | -97.47696 | 5151 ft | 110 kts | 256° |
| 2026-05-07 23:56 | 30.66006 | -97.48396 | 5674 ft | 100 kts | 330° |
| 2026-05-07 23:56 | 30.66697 | -97.48472 | 6062 ft | 105 kts | 4° |
| 2026-05-07 23:56 | 30.67527 | -97.48407 | 6146 ft | 126 kts | 5° |
| 2026-05-07 23:56 | 30.68402 | -97.48299 | 6144 ft | 125 kts | 7° |
| 2026-05-07 23:57 | 30.69174 | -97.47916 | 6088 ft | 120 kts | 44° |
| 2026-05-07 23:57 | 30.69772 | -97.47255 | 6108 ft | 114 kts | 46° |
| 2026-05-07 23:57 | 30.70376 | -97.46673 | 6106 ft | 122 kts | 4° |
| 2026-05-07 23:57 | 30.70459 | -97.47227 | 6120 ft | 115 kts | 167° |
| 2026-05-07 23:58 | 30.70474 | -97.46462 | 6170 ft | 128 kts | 66° |
| 2026-05-07 23:58 | 30.70031 | -97.45972 | 6123 ft | 124 kts | 218° |
| 2026-05-07 23:58 | 30.70285 | -97.46702 | 6083 ft | 134 kts | 8° |
| 2026-05-07 23:58 | 30.71006 | -97.46147 | 6139 ft | 127 kts | 42° |
| 2026-05-07 23:59 | 30.71662 | -97.45469 | 6131 ft | 125 kts | 44° |
| 2026-05-07 23:59 | 30.72334 | -97.45429 | 6063 ft | 124 kts | 272° |
| 2026-05-07 23:59 | 30.71855 | -97.45491 | 6093 ft | 116 kts | 86° |
| 2026-05-07 23:59 | 30.72178 | -97.44707 | 6146 ft | 114 kts | 126° |
| 2026-05-08 00:00 | 30.71789 | -97.45041 | 6172 ft | 123 kts | 306° |
| 2026-05-08 00:00 | 30.72515 | -97.44873 | 6215 ft | 128 kts | 47° |
| 2026-05-08 00:00 | 30.73115 | -97.44137 | 6177 ft | 119 kts | 49° |
| 2026-05-08 00:00 | 30.73601 | -97.43531 | 6131 ft | 90 kts | 51° |
| 2026-05-08 00:01 | 30.73991 | -97.43008 | 6168 ft | 84 kts | 53° |
| 2026-05-08 00:01 | 30.74362 | -97.42489 | 6210 ft | 84 kts | 56° |
| 2026-05-08 00:01 | 30.74698 | -97.41955 | 6171 ft | 79 kts | 60° |
| 2026-05-08 00:01 | 30.74776 | -97.41299 | 5750 ft | 108 kts | 98° |
| 2026-05-08 00:02 | 30.74687 | -97.40454 | 6068 ft | 111 kts | 101° |
| 2026-05-08 00:02 | 30.74578 | -97.39547 | 6233 ft | 104 kts | 100° |
| 2026-05-08 00:02 | 30.74497 | -97.38950 | 6537 ft | 73 kts | 129° |
| 2026-05-08 00:02 | 30.74062 | -97.38288 | 6186 ft | 105 kts | 128° |
| 2026-05-08 00:03 | 30.73661 | -97.37640 | 6075 ft | 87 kts | 129° |
| 2026-05-08 00:03 | 30.73307 | -97.37096 | 5805 ft | 81 kts | 131° |
| 2026-05-08 00:03 | 30.72975 | -97.36631 | 5601 ft | 81 kts | 135° |
| 2026-05-08 00:03 | 30.72506 | -97.36082 | 5748 ft | 103 kts | 138° |
| 2026-05-08 00:04 | 30.71970 | -97.35515 | 5856 ft | 100 kts | 142° |
| 2026-05-08 00:04 | 30.71474 | -97.35018 | 5776 ft | 91 kts | 141° |
| 2026-05-08 00:04 | 30.70989 | -97.34578 | 6000 ft | 77 kts | 148° |
| 2026-05-08 00:04 | 30.70523 | -97.34252 | 6260 ft | 98 kts | 152° |
| 2026-05-08 00:05 | 30.69868 | -97.33829 | 6177 ft | 110 kts | 151° |
| 2026-05-08 00:05 | 30.69454 | -97.33584 | 4740 ft | 185 kts | 231° |
| 2026-05-08 00:05 | 30.68822 | -97.34419 | 5519 ft | 99 kts | 231° |
| 2026-05-08 00:05 | 30.68207 | -97.34705 | 5177 ft | 129 kts | 164° |
| 2026-05-08 00:06 | 30.67296 | -97.34356 | 5210 ft | 143 kts | 160° |
| 2026-05-08 00:06 | 30.66366 | -97.33948 | 5250 ft | 143 kts | 158° |
| 2026-05-08 00:06 | 30.65638 | -97.33392 | 5747 ft | 105 kts | 113° |
| 2026-05-08 00:06 | 30.65850 | -97.32576 | 5520 ft | 147 kts | 37° |
| 2026-05-08 00:07 | 30.66870 | -97.32512 | 5628 ft | 142 kts | 359° |
| 2026-05-08 00:07 | 30.67531 | -97.32043 | 6171 ft | 102 kts | 82° |
| 2026-05-08 00:07 | 30.67231 | -97.31184 | 5607 ft | 156 kts | 144° |
| 2026-05-08 00:07 | 30.66243 | -97.30603 | 5408 ft | 154 kts | 155° |
| 2026-05-08 00:08 | 30.65381 | -97.30132 | 5472 ft | 114 kts | 156° |
| 2026-05-08 00:08 | 30.64717 | -97.29791 | 5332 ft | 102 kts | 158° |
| 2026-05-08 00:08 | 30.64070 | -97.29395 | 5012 ft | 109 kts | 143° |
| 2026-05-08 00:08 | 30.63738 | -97.28658 | 4653 ft | 116 kts | 70° |
| 2026-05-08 00:09 | 30.64392 | -97.28329 | 4351 ft | 121 kts | 343° |
| 2026-05-08 00:09 | 30.64754 | -97.29133 | 4118 ft | 118 kts | 258° |
| 2026-05-08 00:09 | 30.64281 | -97.29810 | 3831 ft | 111 kts | 191° |
| 2026-05-08 00:09 | 30.63641 | -97.29577 | 3514 ft | 105 kts | 123° |
| 2026-05-08 00:10 | 30.63677 | -97.28781 | 3256 ft | 105 kts | 50° |
| 2026-05-08 00:10 | 30.64348 | -97.28800 | 2937 ft | 120 kts | 316° |
| 2026-05-08 00:10 | 30.64363 | -97.29759 | 2534 ft | 133 kts | 236° |
| 2026-05-08 00:10 | 30.63569 | -97.30322 | 2086 ft | 138 kts | 188° |
| 2026-05-08 00:11 | 30.62653 | -97.30479 | 1822 ft | 128 kts | 194° |
| 2026-05-08 00:11 | 30.61993 | -97.31088 | 1466 ft | 128 kts | 246° |
| 2026-05-08 00:11 | 30.61971 | -97.32087 | 1201 ft | 119 kts | 284° |
| 2026-05-08 00:11 | 30.62427 | -97.32805 | 881 ft | 114 kts | 326° |
| 2026-05-08 00:12 | 30.63096 | -97.33264 | 608 ft | 107 kts | 321° |
| 2026-05-08 00:12 | 30.63572 | -97.33810 | 547 ft | 86 kts | 310° |
| 2026-05-08 00:12 | 30.63893 | -97.34221 | 575 ft | 47 kts | 313° |
| 2026-05-08 00:12 | 30.63943 | -97.34284 | 575 ft | 0 kts | 312° |
| 2026-05-08 00:14 | 30.63950 | -97.34294 | 576 ft | 0 kts | 310° |
| 2026-05-08 00:15 | 30.64031 | -97.34415 | 575 ft | 55 kts | 306° |
| 2026-05-08 00:15 | 30.64343 | -97.34900 | 730 ft | 82 kts | 326° |
| 2026-05-08 00:15 | 30.65007 | -97.35057 | 934 ft | 104 kts | 356° |
| 2026-05-08 00:15 | 30.65600 | -97.34691 | 1376 ft | 103 kts | 66° |
| 2026-05-08 00:16 | 30.65434 | -97.33901 | 1845 ft | 107 kts | 114° |
| 2026-05-08 00:16 | 30.64918 | -97.33213 | 2155 ft | 122 kts | 145° |
| 2026-05-08 00:16 | 30.64457 | -97.32837 | 2366 ft | 122 kts | 126° |
| 2026-05-08 00:16 | 30.63934 | -97.31687 | 2795 ft | 122 kts | 116° |
| 2026-05-08 00:17 | 30.63655 | -97.31117 | 3003 ft | 124 kts | 116° |
| 2026-05-08 00:17 | 30.63244 | -97.30267 | 3407 ft | 117 kts | 117° |
| 2026-05-08 00:17 | 30.62853 | -97.29455 | 3803 ft | 113 kts | 117° |
| 2026-05-08 00:17 | 30.62474 | -97.28663 | 4204 ft | 112 kts | 118° |
| 2026-05-08 00:18 | 30.62095 | -97.27877 | 4610 ft | 111 kts | 119° |
| 2026-05-08 00:18 | 30.61723 | -97.27094 | 5002 ft | 110 kts | 119° |
| 2026-05-08 00:18 | 30.61356 | -97.26316 | 5404 ft | 110 kts | 120° |
| 2026-05-08 00:18 | 30.60989 | -97.25546 | 5803 ft | 108 kts | 120° |
| 2026-05-08 00:19 | 30.60627 | -97.24785 | 6217 ft | 108 kts | 121° |
| 2026-05-08 00:19 | 30.60266 | -97.24011 | 6627 ft | 110 kts | 121° |
| 2026-05-08 00:19 | 30.59894 | -97.23227 | 7018 ft | 112 kts | 122° |
| 2026-05-08 00:19 | 30.59511 | -97.22425 | 7418 ft | 115 kts | 122° |
| 2026-05-08 00:20 | 30.59117 | -97.21601 | 7828 ft | 118 kts | 123° |
| 2026-05-08 00:20 | 30.58713 | -97.20757 | 8230 ft | 121 kts | 124° |
| 2026-05-08 00:20 | 30.58304 | -97.19898 | 8643 ft | 122 kts | 124° |
| 2026-05-08 00:20 | 30.57890 | -97.19027 | 9060 ft | 124 kts | 125° |
| 2026-05-08 00:21 | 30.57472 | -97.18155 | 9482 ft | 126 kts | 126° |
| 2026-05-08 00:21 | 30.57090 | -97.17334 | 9763 ft | 96 kts | 129° |
| 2026-05-08 00:21 | 30.56724 | -97.16612 | 9509 ft | 118 kts | 129° |
| 2026-05-08 00:21 | 30.56341 | -97.15794 | 9966 ft | 114 kts | 127° |
| 2026-05-08 00:22 | 30.55959 | -97.14987 | 10351 ft | 117 kts | 128° |
| 2026-05-08 00:22 | 30.55535 | -97.14104 | 10573 ft | 136 kts | 127° |
| 2026-05-08 00:22 | 30.55059 | -97.13098 | 10858 ft | 144 kts | 127° |
| 2026-05-08 00:22 | 30.54578 | -97.12078 | 11252 ft | 144 kts | 128° |
| 2026-05-08 00:23 | 30.54094 | -97.11062 | 11642 ft | 144 kts | 129° |
| 2026-05-08 00:23 | 30.53605 | -97.10039 | 12030 ft | 146 kts | 130° |
| 2026-05-08 00:23 | 30.53111 | -97.09005 | 12423 ft | 147 kts | 130° |
| 2026-05-08 00:23 | 30.52612 | -97.07960 | 12815 ft | 149 kts | 131° |
| 2026-05-08 00:24 | 30.52109 | -97.06907 | 13215 ft | 150 kts | 131° |
| 2026-05-08 00:24 | 30.51601 | -97.05843 | 13620 ft | 151 kts | 132° |
| 2026-05-08 00:24 | 30.51090 | -97.04772 | 14006 ft | 152 kts | 132° |
| 2026-05-08 00:24 | 30.50572 | -97.03689 | 14371 ft | 155 kts | 132° |
| 2026-05-08 00:25 | 30.50049 | -97.02595 | 14738 ft | 156 kts | 131° |
| 2026-05-08 00:25 | 30.49520 | -97.01488 | 15107 ft | 158 kts | 131° |
| 2026-05-08 00:25 | 30.48985 | -97.00369 | 15484 ft | 160 kts | 131° |
| 2026-05-08 00:25 | 30.48444 | -96.99239 | 15866 ft | 161 kts | 130° |
| 2026-05-08 00:26 | 30.47899 | -96.98097 | 16251 ft | 163 kts | 130° |
| 2026-05-08 00:26 | 30.47348 | -96.96946 | 16650 ft | 164 kts | 130° |
| 2026-05-08 00:26 | 30.46791 | -96.95784 | 17042 ft | 166 kts | 130° |
| 2026-05-08 00:26 | 30.46230 | -96.94612 | 17441 ft | 167 kts | 129° |
| 2026-05-08 00:27 | 30.45663 | -96.93428 | 17821 ft | 171 kts | 129° |
| 2026-05-08 00:27 | 30.45032 | -96.92133 | 17853 ft | 197 kts | 128° |
| 2026-05-08 00:27 | 30.44333 | -96.90676 | 17855 ft | 216 kts | 127° |
| 2026-05-08 00:27 | 30.43732 | -96.89013 | 17849 ft | 235 kts | 105° |
| 2026-05-08 00:28 | 30.43570 | -96.87092 | 17849 ft | 244 kts | 94° |
| 2026-05-08 00:28 | 30.43504 | -96.85109 | 17845 ft | 249 kts | 96° |
| 2026-05-08 00:28 | 30.43371 | -96.83099 | 17846 ft | 251 kts | 98° |
| 2026-05-08 00:28 | 30.43211 | -96.81074 | 17850 ft | 253 kts | 98° |
| 2026-05-08 00:29 | 30.43063 | -96.79039 | 17852 ft | 255 kts | 97° |
| 2026-05-08 00:29 | 30.42915 | -96.76991 | 17842 ft | 255 kts | 99° |
| 2026-05-08 00:29 | 30.42399 | -96.75070 | 17843 ft | 250 kts | 116° |
| 2026-05-08 00:29 | 30.42191 | -96.73048 | 17833 ft | 257 kts | 88° |
| 2026-05-08 00:30 | 30.42285 | -96.70985 | 17842 ft | 256 kts | 92° |
| 2026-05-08 00:30 | 30.42193 | -96.68925 | 17843 ft | 256 kts | 97° |
| 2026-05-08 00:30 | 30.42128 | -96.66866 | 17841 ft | 256 kts | 94° |
| 2026-05-08 00:30 | 30.42088 | -96.64800 | 17840 ft | 256 kts | 95° |
| 2026-05-08 00:31 | 30.42024 | -96.62739 | 17836 ft | 256 kts | 96° |
| 2026-05-08 00:31 | 30.41952 | -96.60670 | 17832 ft | 257 kts | 95° |
| 2026-05-08 00:31 | 30.41884 | -96.58604 | 17830 ft | 257 kts | 95° |